Terminal Aerodrome Forecast
Issued by NWS

Home | Current Version | Previous Version | Text Only | Print | Product List | Glossary On
Versions: 1 2 3 4 5 6 7 8 9 10 11 12 13
000
FTUS41 KPBZ 222320
TAFZZV
TAF
KZZV 222320Z 2300/2324 13004KT P6SM SCT100
     FM231200 13008KT P6SM BKN090
     FM231500 15011KT P6SM VCSH OVC050
     FM231800 15012G20KT P6SM -SHRA OVC025
     FM232100 16012KT 4SM RA OVC015=

USA.gov is the U.S. government's official web portal to all federal, state and local government web resources and services.